Time;durP1;ratioP1;P1;durP2;ratioP2;P2;SDS_P1;SDS_P2;PMS_P1;PMS_P2;Temp;Humidity;BMP_temperature;BMP_pressure;BME280_temperature;BME280_humidity;BME280_pressure;Samples;Min_cycle;Max_cycle;Signal;HPM_P1;HPM_P2
2023/09/25 00:01:04;;;;;;;3.17;2.88;;;11.20;99.90;;;;;;4986179;28;20410;-81
2023/09/25 00:03:30;;;;;;;4.53;3.20;;;11.20;99.90;;;;;;4988630;28;20050;-80
2023/09/25 00:05:55;;;;;;;4.15;2.85;;;11.30;99.90;;;;;;4971155;28;20117;-80
2023/09/25 00:08:21;;;;;;;4.72;3.10;;;11.30;99.90;;;;;;4978673;28;20054;-80
2023/09/25 00:10:48;;;;;;;5.22;2.95;;;11.40;99.90;;;;;;4966039;28;20054;-80
2023/09/25 00:13:13;;;;;;;3.40;3.00;;;11.40;99.90;;;;;;4988125;28;20038;-81
2023/09/25 00:15:44;;;;;;;3.25;2.95;;;11.50;99.90;;;;;;4987906;28;20418;-80
2023/09/25 00:18:11;;;;;;;3.67;3.00;;;11.50;99.90;;;;;;4987584;28;20058;-81
2023/09/25 00:20:37;;;;;;;3.30;3.00;;;11.60;99.90;;;;;;4969444;28;20046;-80
2023/09/25 00:23:02;;;;;;;3.58;2.70;;;11.60;99.90;;;;;;4986765;28;20085;-81
2023/09/25 00:25:28;;;;;;;5.22;3.20;;;11.60;99.90;;;;;;4985990;28;20125;-81
2023/09/25 00:27:54;;;;;;;5.13;3.13;;;11.60;99.90;;;;;;4987580;28;20173;-81
2023/09/25 00:30:20;;;;;;;3.33;2.72;;;11.60;99.90;;;;;;4986676;28;20058;-81
2023/09/25 00:32:45;;;;;;;3.83;3.30;;;11.60;99.90;;;;;;4970495;28;20162;-81
2023/09/25 00:35:11;;;;;;;5.22;2.92;;;11.50;99.90;;;;;;4987630;28;20062;-81
2023/09/25 00:37:38;;;;;;;4.72;3.40;;;11.50;99.90;;;;;;4982942;28;20050;-81
2023/09/25 00:40:13;;;;;;;4.38;3.15;;;11.50;99.90;;;;;;4969302;28;20133;-82
2023/09/25 00:42:40;;;;;;;3.45;2.75;;;11.50;99.90;;;;;;4986832;28;20446;-81
2023/09/25 00:45:06;;;;;;;5.10;3.50;;;11.40;99.90;;;;;;4987690;28;20081;-81
2023/09/25 00:47:32;;;;;;;3.95;3.20;;;11.40;99.90;;;;;;5005798;28;20081;-81
2023/09/25 00:49:58;;;;;;;6.53;3.35;;;11.80;99.90;;;;;;4975665;28;20078;-81
2023/09/25 00:52:24;;;;;;;4.82;3.15;;;11.30;99.90;;;;;;4990900;28;20084;-81
2023/09/25 00:54:51;;;;;;;6.57;3.67;;;11.30;99.90;;;;;;4988949;28;20046;-80
2023/09/25 00:57:17;;;;;;;4.68;3.40;;;11.20;99.90;;;;;;4972987;28;20472;-81
2023/09/25 00:59:43;;;;;;;3.83;3.45;;;11.20;99.90;;;;;;4968051;28;20129;-80
2023/09/25 01:02:10;;;;;;;3.50;3.20;;;11.20;99.90;;;;;;4991191;28;20191;-81
2023/09/25 01:04:36;;;;;;;4.20;3.45;;;11.20;99.90;;;;;;4988530;28;20438;-81
2023/09/25 01:07:03;;;;;;;3.88;3.53;;;11.10;99.90;;;;;;4991123;28;20069;-81
2023/09/25 01:09:28;;;;;;;4.43;3.80;;;11.10;99.90;;;;;;4980851;28;20537;-81
2023/09/25 01:11:54;;;;;;;4.90;3.67;;;11.10;99.90;;;;;;4981513;28;20038;-80
2023/09/25 01:14:19;;;;;;;5.88;3.60;;;11.00;99.90;;;;;;4991168;28;20092;-81
2023/09/25 01:16:45;;;;;;;4.07;3.70;;;11.00;99.90;;;;;;4990012;28;20137;-81
2023/09/25 01:19:11;;;;;;;4.40;4.00;;;11.30;99.90;;;;;;4990460;28;20042;-81
2023/09/25 01:21:36;;;;;;;4.00;3.65;;;11.00;99.90;;;;;;4972615;28;20046;-82
2023/09/25 01:24:02;;;;;;;4.97;3.65;;;11.00;99.90;;;;;;4991362;28;20070;-81
2023/09/25 01:26:28;;;;;;;4.38;3.83;;;10.90;99.90;;;;;;4988704;28;20046;-81
2023/09/25 01:28:54;;;;;;;4.90;3.90;;;10.90;99.90;;;;;;4991372;28;20047;-81
2023/09/25 01:31:19;;;;;;;5.32;4.03;;;10.90;99.90;;;;;;4989728;28;20057;-80
2023/09/25 01:33:45;;;;;;;3.90;3.50;;;10.90;99.90;;;;;;4990467;28;20049;-81
2023/09/25 01:36:11;;;;;;;4.50;3.90;;;10.90;99.90;;;;;;4982520;28;20395;-81
2023/09/25 01:38:37;;;;;;;6.35;4.00;;;10.90;99.90;;;;;;4971140;28;20170;-80
2023/09/25 01:41:03;;;;;;;5.05;4.03;;;10.90;99.90;;;;;;4985850;28;20124;-81
2023/09/25 01:43:29;;;;;;;4.53;3.70;;;10.80;99.90;;;;;;4973467;28;20562;-80
2023/09/25 01:45:55;;;;;;;4.32;3.90;;;10.80;99.90;;;;;;4989783;28;20149;-80
2023/09/25 01:48:21;;;;;;;6.22;4.10;;;10.80;99.90;;;;;;4991040;28;20406;-81
2023/09/25 01:50:47;;;;;;;4.95;4.03;;;10.80;99.90;;;;;;4987705;28;20058;-80
2023/09/25 01:53:13;;;;;;;4.50;3.78;;;10.80;99.90;;;;;;4972719;28;20046;-81
2023/09/25 01:55:40;;;;;;;4.30;3.90;;;10.80;99.90;;;;;;4990399;28;20049;-81
2023/09/25 01:58:06;;;;;;;4.47;4.07;;;11.20;99.90;;;;;;4990801;28;20217;-80
2023/09/25 02:00:32;;;;;;;5.97;4.13;;;10.80;99.90;;;;;;4989326;28;20158;-80
2023/09/25 02:02:58;;;;;;;5.30;4.28;;;10.80;99.90;;;;;;4989337;28;20652;-81
2023/09/25 02:05:24;;;;;;;4.95;3.67;;;10.70;99.90;;;;;;4989841;28;20098;-80
2023/09/25 02:07:49;;;;;;;5.72;4.30;;;10.70;99.90;;;;;;4977593;28;20043;-81
2023/09/25 02:10:15;;;;;;;4.30;3.88;;;10.70;99.90;;;;;;4985838;28;20064;-81
2023/09/25 02:12:40;;;;;;;5.53;3.85;;;10.70;99.90;;;;;;4990294;28;20112;-81
2023/09/25 02:15:08;;;;;;;4.38;3.95;;;10.70;99.90;;;;;;4989210;28;20465;-82
2023/09/25 02:17:34;;;;;;;6.35;3.63;;;10.70;99.90;;;;;;4990348;28;20152;-81
2023/09/25 02:20:17;;;;;;;6.38;3.60;;;10.70;99.90;;;;;;4989528;28;20069;-81
2023/09/25 02:22:44;;;;;;;4.88;3.97;;;10.70;99.90;;;;;;4989632;28;20046;-81
2023/09/25 02:25:10;;;;;;;6.53;3.88;;;10.70;99.90;;;;;;4965026;28;20049;-81
2023/09/25 02:27:36;;;;;;;4.07;3.67;;;10.70;99.90;;;;;;4989094;28;20576;-81
2023/09/25 02:30:02;;;;;;;4.43;4.03;;;10.80;99.90;;;;;;4989810;28;20050;-81
2023/09/25 02:32:27;;;;;;;4.25;3.60;;;10.80;99.90;;;;;;4989952;28;20053;-80
2023/09/25 02:34:53;;;;;;;4.15;3.65;;;10.80;99.90;;;;;;4992010;28;20042;-80
2023/09/25 02:37:20;;;;;;;3.70;3.30;;;10.80;99.90;;;;;;4986396;28;20108;-81
2023/09/25 02:39:46;;;;;;;4.95;3.88;;;10.80;99.90;;;;;;4989493;28;20038;-82
2023/09/25 02:42:12;;;;;;;3.92;3.53;;;10.80;99.90;;;;;;4983612;28;20061;-82
2023/09/25 02:44:38;;;;;;;3.97;3.67;;;10.80;99.90;;;;;;4989738;28;20042;-81
2023/09/25 02:47:04;;;;;;;3.92;3.60;;;10.80;99.90;;;;;;4989873;28;20046;-80
2023/09/25 02:49:29;;;;;;;5.47;4.00;;;10.80;99.90;;;;;;4989583;28;20072;-81
2023/09/25 02:51:55;;;;;;;7.40;3.90;;;10.80;99.90;;;;;;4990095;28;20137;-81
2023/09/25 02:54:20;;;;;;;4.00;3.63;;;10.80;99.90;;;;;;4972500;28;20093;-81
2023/09/25 02:56:46;;;;;;;4.65;3.88;;;10.80;99.90;;;;;;4990000;28;20050;-81
2023/09/25 02:59:12;;;;;;;6.00;4.38;;;10.80;99.90;;;;;;4983052;28;20049;-81
2023/09/25 03:01:37;;;;;;;10.07;4.10;;;10.90;99.90;;;;;;4990057;28;20061;-80
2023/09/25 03:04:03;;;;;;;4.15;3.80;;;10.90;99.90;;;;;;4956891;28;20042;-80
2023/09/25 03:06:29;;;;;;;5.93;4.20;;;10.90;99.90;;;;;;4989836;28;20053;-80
2023/09/25 03:08:54;;;;;;;4.40;3.88;;;10.90;99.90;;;;;;4989197;28;20065;-80
2023/09/25 03:11:20;;;;;;;5.90;4.20;;;10.90;99.90;;;;;;4988835;28;20043;-80
2023/09/25 03:13:45;;;;;;;5.22;4.72;;;10.90;99.90;;;;;;4989297;28;20079;-81
2023/09/25 03:16:15;;;;;;;5.00;4.30;;;10.90;99.90;;;;;;4973114;28;20043;-80
2023/09/25 03:18:41;;;;;;;5.03;4.43;;;10.90;99.90;;;;;;4961876;28;20065;-80
2023/09/25 03:21:14;;;;;;;4.57;4.10;;;10.90;99.90;;;;;;4982343;28;20061;-81
2023/09/25 03:23:40;;;;;;;4.55;4.15;;;10.90;99.90;;;;;;4988390;28;20050;-81
2023/09/25 03:26:14;;;;;;;5.05;3.90;;;10.90;99.90;;;;;;4988318;28;20571;-81
2023/09/25 03:28:40;;;;;;;4.75;3.60;;;10.90;99.90;;;;;;4987327;28;20105;-81
2023/09/25 03:31:06;;;;;;;5.30;4.10;;;10.80;99.90;;;;;;4971338;28;20477;-81
2023/09/25 03:33:32;;;;;;;4.32;3.80;;;10.80;99.90;;;;;;4990229;28;20466;-81
2023/09/25 03:35:57;;;;;;;4.97;3.83;;;10.90;99.90;;;;;;4971146;28;20168;-81
2023/09/25 03:38:23;;;;;;;3.97;3.67;;;10.80;99.90;;;;;;4989433;28;20113;-81
2023/09/25 03:40:49;;;;;;;4.50;3.50;;;11.20;99.90;;;;;;4988220;28;20041;-81
2023/09/25 03:43:14;;;;;;;5.57;3.70;;;10.90;99.90;;;;;;4989020;28;20678;-81
2023/09/25 03:45:40;;;;;;;4.57;3.60;;;10.90;99.90;;;;;;4970275;28;20076;-81
2023/09/25 03:48:06;;;;;;;5.40;3.88;;;10.90;99.90;;;;;;4988437;28;20463;-81
2023/09/25 03:50:31;;;;;;;4.72;3.85;;;10.90;99.90;;;;;;4987392;28;20059;-81
2023/09/25 03:53:00;;;;;;;4.07;3.40;;;10.90;99.90;;;;;;4985796;28;20077;-81
2023/09/25 03:55:26;;;;;;;4.70;4.30;;;10.90;99.90;;;;;;4988254;28;20506;-81
2023/09/25 03:57:51;;;;;;;4.40;3.92;;;10.90;99.90;;;;;;4988708;28;20049;-81
2023/09/25 04:00:17;;;;;;;5.68;3.92;;;11.00;99.90;;;;;;4987689;28;20123;-81
2023/09/25 04:02:43;;;;;;;5.47;4.18;;;11.00;99.90;;;;;;4988834;28;20154;-80
2023/09/25 04:05:10;;;;;;;4.13;3.55;;;11.00;99.90;;;;;;4987977;28;20204;-80
2023/09/25 04:07:35;;;;;;;4.97;4.00;;;11.00;99.90;;;;;;4998880;28;20053;-80
2023/09/25 04:10:02;;;;;;;4.47;3.83;;;11.00;99.90;;;;;;4998160;28;20703;-80
2023/09/25 04:12:28;;;;;;;4.93;4.13;;;11.00;99.90;;;;;;4971831;28;20094;-81
2023/09/25 04:14:53;;;;;;;4.47;3.95;;;11.00;99.90;;;;;;4987870;28;20047;-80
2023/09/25 04:17:20;;;;;;;4.60;4.00;;;11.00;99.90;;;;;;4988706;28;20066;-80
2023/09/25 04:19:48;;;;;;;5.55;4.20;;;11.00;99.90;;;;;;4955495;28;20593;-80
2023/09/25 04:22:14;;;;;;;4.47;4.00;;;11.00;99.90;;;;;;4986260;28;20049;-80
2023/09/25 04:24:39;;;;;;;3.90;3.50;;;11.00;99.90;;;;;;4956489;28;20052;-80
2023/09/25 04:27:05;;;;;;;5.28;3.92;;;11.00;99.90;;;;;;4988085;28;20295;-81
2023/09/25 04:29:31;;;;;;;4.93;4.15;;;11.00;99.90;;;;;;4989193;28;20038;-80
2023/09/25 04:31:57;;;;;;;6.00;4.10;;;11.00;99.90;;;;;;4988184;28;20417;-81
2023/09/25 04:34:23;;;;;;;4.18;3.65;;;11.10;99.90;;;;;;4971062;28;20129;-81
2023/09/25 04:36:49;;;;;;;5.97;4.10;;;11.10;99.90;;;;;;4957835;28;20039;-80
2023/09/25 04:39:16;;;;;;;5.65;3.97;;;11.00;99.90;;;;;;4977367;28;20058;-80
2023/09/25 04:41:45;;;;;;;5.22;3.88;;;11.10;99.90;;;;;;4981688;28;20130;-81
2023/09/25 04:44:10;;;;;;;9.48;4.35;;;11.00;99.90;;;;;;4970917;28;20050;-81
2023/09/25 04:46:37;;;;;;;5.60;3.97;;;11.00;99.90;;;;;;4988409;28;20049;-81
2023/09/25 04:49:06;;;;;;;4.88;3.85;;;11.10;99.90;;;;;;4986105;28;20046;-81
2023/09/25 04:51:32;;;;;;;4.28;3.80;;;11.10;99.90;;;;;;4986021;28;20043;-81
2023/09/25 04:53:59;;;;;;;4.00;3.60;;;11.10;99.90;;;;;;4968575;28;20274;-80
2023/09/25 04:56:27;;;;;;;6.15;3.78;;;11.10;99.90;;;;;;4984710;28;20101;-81
2023/09/25 04:58:53;;;;;;;4.65;3.40;;;11.10;99.90;;;;;;4988324;28;20046;-82
2023/09/25 05:01:19;;;;;;;4.25;3.85;;;11.10;99.90;;;;;;4969707;28;20524;-80
2023/09/25 05:03:45;;;;;;;3.90;3.50;;;11.10;99.90;;;;;;4986650;28;20031;-81
2023/09/25 05:06:11;;;;;;;3.85;3.45;;;11.10;99.90;;;;;;4988513;28;20383;-81
2023/09/25 05:08:38;;;;;;;5.10;3.53;;;11.10;99.90;;;;;;4970986;28;20791;-81
2023/09/25 05:11:05;;;;;;;6.28;3.40;;;11.10;99.90;;;;;;4987942;28;20043;-80
2023/09/25 05:13:32;;;;;;;5.10;3.80;;;11.10;99.90;;;;;;4985605;28;20031;-80
2023/09/25 05:15:57;;;;;;;5.57;3.63;;;11.20;99.90;;;;;;4986143;28;20050;-81
2023/09/25 05:18:23;;;;;;;3.88;3.53;;;11.20;99.90;;;;;;4990339;28;20038;-80
2023/09/25 05:20:49;;;;;;;4.95;3.47;;;11.30;99.90;;;;;;4989877;28;20046;-81
2023/09/25 05:23:14;;;;;;;5.47;3.40;;;11.30;99.90;;;;;;4990319;28;20058;-80
2023/09/25 05:25:40;;;;;;;4.80;3.33;;;11.30;99.90;;;;;;4971251;28;20101;-80
2023/09/25 05:28:05;;;;;;;4.40;3.28;;;12.20;99.90;;;;;;4970426;28;20554;-81
2023/09/25 05:30:31;;;;;;;4.25;3.30;;;11.40;99.90;;;;;;4988248;28;20056;-81
2023/09/25 05:32:57;;;;;;;3.80;3.33;;;11.40;99.90;;;;;;4976427;28;20148;-81
2023/09/25 05:35:22;;;;;;;4.65;3.33;;;11.40;99.90;;;;;;4987894;28;20078;-81
2023/09/25 05:37:48;;;;;;;3.95;3.20;;;11.90;99.90;;;;;;4986105;28;20049;-81
2023/09/25 05:40:15;;;;;;;5.40;3.60;;;11.40;99.90;;;;;;4974578;28;20046;-80
2023/09/25 05:42:43;;;;;;;3.83;3.13;;;11.40;99.90;;;;;;4974842;28;20046;-81
2023/09/25 05:45:09;;;;;;;5.00;3.40;;;11.40;99.90;;;;;;4991291;28;20057;-81
2023/09/25 05:47:39;;;;;;;3.92;3.47;;;11.50;99.90;;;;;;4992021;28;20042;-81
2023/09/25 05:50:06;;;;;;;4.57;3.20;;;11.60;99.90;;;;;;4991863;28;20042;-81
2023/09/25 05:52:35;;;;;;;3.58;3.28;;;11.60;99.90;;;;;;4991871;28;20477;-81
2023/09/25 05:55:02;;;;;;;4.30;3.90;;;11.60;99.90;;;;;;4992325;28;20089;-81
2023/09/25 05:57:28;;;;;;;4.93;3.80;;;11.60;99.90;;;;;;4991721;28;20046;-81
2023/09/25 05:59:54;;;;;;;3.53;3.20;;;11.70;99.90;;;;;;4958120;28;20042;-81
2023/09/25 06:02:19;;;;;;;4.47;3.40;;;11.70;99.90;;;;;;4991240;28;20053;-81
2023/09/25 06:04:46;;;;;;;4.07;3.25;;;11.70;99.90;;;;;;4974693;28;20050;-83
2023/09/25 06:07:12;;;;;;;4.32;3.38;;;11.80;99.90;;;;;;4974065;28;20121;-81
2023/09/25 06:09:38;;;;;;;4.22;3.30;;;11.80;99.90;;;;;;4990955;28;20046;-82
2023/09/25 06:12:04;;;;;;;5.85;3.53;;;12.10;99.90;;;;;;4992246;28;20049;-82
2023/09/25 06:14:29;;;;;;;6.57;3.55;;;11.90;99.90;;;;;;4990850;28;20046;-81
2023/09/25 06:16:57;;;;;;;3.67;3.30;;;11.90;99.90;;;;;;4969764;28;20054;-83
2023/09/25 06:19:24;;;;;;;4.28;3.60;;;11.90;99.90;;;;;;4971037;28;20059;-81
2023/09/25 06:21:50;;;;;;;4.63;3.30;;;12.00;99.90;;;;;;4970256;28;20069;-80
2023/09/25 06:24:16;;;;;;;5.20;3.40;;;12.10;99.90;;;;;;4969181;28;20043;-81
2023/09/25 06:26:46;;;;;;;5.47;3.60;;;12.10;99.90;;;;;;4981856;28;20054;-80
2023/09/25 06:29:12;;;;;;;4.60;3.35;;;12.20;99.90;;;;;;4988703;28;20069;-81
2023/09/25 06:31:38;;;;;;;4.85;3.53;;;12.20;99.90;;;;;;4970759;28;20074;-81
2023/09/25 06:34:05;;;;;;;4.15;3.20;;;12.20;99.90;;;;;;4969761;28;20455;-81
2023/09/25 06:36:34;;;;;;;3.67;3.25;;;12.30;99.90;;;;;;4971410;28;20050;-81
2023/09/25 06:39:00;;;;;;;7.22;3.13;;;12.60;99.90;;;;;;4969361;28;20046;-81
2023/09/25 06:41:26;;;;;;;6.75;3.60;;;12.40;99.90;;;;;;4968724;28;20125;-80
2023/09/25 06:43:53;;;;;;;4.28;3.75;;;12.50;99.90;;;;;;4970909;28;20055;-82
2023/09/25 06:46:18;;;;;;;6.30;3.70;;;12.50;99.90;;;;;;4971054;28;20038;-80
2023/09/25 06:48:49;;;;;;;4.70;3.20;;;12.60;99.90;;;;;;4969276;28;20039;-80
2023/09/25 06:51:15;;;;;;;3.95;3.25;;;12.70;99.90;;;;;;4970820;28;20498;-82
2023/09/25 06:53:40;;;;;;;3.33;3.00;;;12.70;99.90;;;;;;4970863;28;20102;-81
2023/09/25 06:56:06;;;;;;;4.28;3.03;;;12.80;99.90;;;;;;4971673;28;20045;-80
2023/09/25 06:58:32;;;;;;;3.25;2.95;;;12.90;99.90;;;;;;4972126;28;20043;-81
2023/09/25 07:00:58;;;;;;;6.32;3.40;;;13.30;99.90;;;;;;4971480;28;20050;-81
2023/09/25 07:03:23;;;;;;;4.28;3.20;;;13.40;99.90;;;;;;4971148;28;20428;-81
2023/09/25 07:05:49;;;;;;;3.78;3.13;;;13.20;99.90;;;;;;4969887;28;20458;-82
2023/09/25 07:08:14;;;;;;;3.38;2.70;;;13.30;99.90;;;;;;4970711;28;20053;-80
2023/09/25 07:10:45;;;;;;;7.43;2.85;;;13.30;99.90;;;;;;4969838;28;20050;-82
2023/09/25 07:13:10;;;;;;;4.78;3.10;;;13.40;99.90;;;;;;4970739;28;20062;-81
2023/09/25 07:15:36;;;;;;;4.88;3.00;;;13.50;99.90;;;;;;4971089;28;20418;-81
2023/09/25 07:18:01;;;;;;;5.45;2.95;;;13.70;99.90;;;;;;4969409;28;20095;-80
2023/09/25 07:20:27;;;;;;;3.70;3.10;;;13.70;99.90;;;;;;4969955;28;20059;-81
2023/09/25 07:22:53;;;;;;;4.30;2.92;;;13.80;99.90;;;;;;4970625;28;20042;-81
2023/09/25 07:25:24;;;;;;;3.95;2.90;;;14.10;99.90;;;;;;4967934;28;20054;-82
2023/09/25 07:27:50;;;;;;;3.23;2.57;;;14.70;99.90;;;;;;4969878;28;20034;-82
2023/09/25 07:30:15;;;;;;;4.65;3.10;;;14.10;99.90;;;;;;4968701;28;20410;-81
2023/09/25 07:32:42;;;;;;;3.83;3.00;;;14.10;99.90;;;;;;4968380;28;20039;-82
2023/09/25 07:35:10;;;;;;;5.07;3.00;;;14.20;99.90;;;;;;4969794;28;20054;-82
2023/09/25 07:37:37;;;;;;;4.53;3.13;;;14.80;99.90;;;;;;4969625;28;20062;-82
2023/09/25 07:40:10;;;;;;;3.55;2.58;;;14.30;99.90;;;;;;4968872;28;20137;-81
2023/09/25 07:42:36;;;;;;;3.67;2.90;;;14.50;99.90;;;;;;4969226;28;20529;-81
2023/09/25 07:45:05;;;;;;;6.45;2.90;;;14.50;99.90;;;;;;4969258;28;20125;-80
2023/09/25 07:47:31;;;;;;;3.30;2.55;;;14.60;99.90;;;;;;4952413;28;20058;-80
2023/09/25 07:49:57;;;;;;;4.88;2.60;;;14.90;99.90;;;;;;4969132;28;20046;-80
2023/09/25 07:52:24;;;;;;;4.95;2.70;;;14.70;99.90;;;;;;4965951;28;20039;-80
2023/09/25 07:54:51;;;;;;;3.75;2.53;;;14.80;99.90;;;;;;4966049;28;20501;-80
2023/09/25 07:57:22;;;;;;;2.95;2.65;;;14.80;99.90;;;;;;4969437;28;20134;-79
2023/09/25 07:59:48;;;;;;;3.80;2.60;;;14.90;99.90;;;;;;4968343;28;20054;-80
2023/09/25 08:02:18;;;;;;;12.40;2.75;;;15.00;99.90;;;;;;4978182;28;20038;-79
2023/09/25 08:04:44;;;;;;;3.55;2.70;;;15.10;99.90;;;;;;4967210;28;20054;-79
2023/09/25 08:07:11;;;;;;;4.70;2.55;;;15.20;99.90;;;;;;4967382;28;20146;-80
2023/09/25 08:09:37;;;;;;;3.13;2.30;;;15.30;99.90;;;;;;4968004;28;20117;-80
2023/09/25 08:12:03;;;;;;;2.78;2.50;;;15.50;99.90;;;;;;4968608;28;20042;-80
2023/09/25 08:14:29;;;;;;;4.53;2.55;;;15.60;99.90;;;;;;4967938;28;20042;-79
2023/09/25 08:16:54;;;;;;;3.50;2.67;;;15.70;99.90;;;;;;4969493;28;20058;-79
2023/09/25 08:19:22;;;;;;;4.53;2.83;;;15.80;99.90;;;;;;4977746;28;20407;-80
2023/09/25 08:21:49;;;;;;;3.10;2.22;;;16.00;99.90;;;;;;4968674;28;20054;-81
2023/09/25 08:24:15;;;;;;;3.25;2.60;;;15.90;99.90;;;;;;4988661;28;20042;-80
2023/09/25 08:26:41;;;;;;;3.70;2.75;;;16.00;99.90;;;;;;4970476;28;20057;-81
2023/09/25 08:29:07;;;;;;;3.10;2.63;;;16.00;99.90;;;;;;4969483;28;20057;-78
2023/09/25 08:31:34;;;;;;;3.75;2.40;;;16.00;99.90;;;;;;4987193;28;20085;-80
2023/09/25 08:33:59;;;;;;;3.00;2.20;;;16.10;99.90;;;;;;4960535;28;20137;-79
2023/09/25 08:36:25;;;;;;;4.30;2.40;;;16.10;99.90;;;;;;4968305;28;20125;-79
2023/09/25 08:38:51;;;;;;;3.13;2.20;;;16.10;99.90;;;;;;4968985;28;20041;-79
2023/09/25 08:41:19;;;;;;;2.97;2.33;;;16.10;99.90;;;;;;4985866;28;20061;-80
2023/09/25 08:43:44;;;;;;;3.33;2.38;;;16.20;99.90;;;;;;4987386;28;20054;-81
2023/09/25 08:46:11;;;;;;;3.17;2.33;;;16.20;99.90;;;;;;4980827;28;20470;-81
2023/09/25 08:48:36;;;;;;;3.88;2.30;;;16.20;99.90;;;;;;4949432;28;20046;-81
2023/09/25 08:51:03;;;;;;;3.17;2.13;;;16.30;99.90;;;;;;4987300;28;20129;-79
2023/09/25 08:53:29;;;;;;;2.40;2.08;;;16.30;99.90;;;;;;4987400;28;20050;-80
2023/09/25 08:55:55;;;;;;;3.80;2.00;;;16.40;99.90;;;;;;4987264;28;20053;-82
2023/09/25 08:58:22;;;;;;;2.40;1.83;;;16.50;99.90;;;;;;4986684;28;20644;-80
2023/09/25 09:00:48;;;;;;;4.60;2.55;;;16.60;99.90;;;;;;4996813;28;20052;-80
2023/09/25 09:03:13;;;;;;;3.28;1.80;;;17.10;99.90;;;;;;4976640;28;20482;-80
2023/09/25 09:05:39;;;;;;;3.58;2.42;;;16.80;99.90;;;;;;4986964;28;20561;-80
2023/09/25 09:08:06;;;;;;;5.57;2.47;;;16.90;99.90;;;;;;4968010;28;20482;-79
2023/09/25 09:10:33;;;;;;;3.80;2.28;;;17.10;99.90;;;;;;4985925;28;20105;-78
2023/09/25 09:12:59;;;;;;;3.83;2.40;;;17.20;99.90;;;;;;4990003;28;20121;-80
2023/09/25 09:15:26;;;;;;;3.72;2.40;;;17.30;99.90;;;;;;4991197;28;20466;-80
2023/09/25 09:17:54;;;;;;;2.63;1.95;;;17.30;99.90;;;;;;4992095;28;20715;-80
2023/09/25 09:20:21;;;;;;;2.55;2.00;;;17.40;99.90;;;;;;4973599;28;20042;-81
2023/09/25 09:22:51;;;;;;;3.40;2.40;;;17.40;99.90;;;;;;4997368;28;20116;-79
2023/09/25 09:25:20;;;;;;;3.05;2.08;;;17.30;99.90;;;;;;4987479;28;20556;-81
2023/09/25 09:27:46;;;;;;;3.33;2.20;;;17.40;99.90;;;;;;4991598;28;20046;-80
2023/09/25 09:30:23;;;;;;;3.05;2.17;;;17.40;99.90;;;;;;4972690;28;20132;-81
2023/09/25 09:32:50;;;;;;;3.25;2.42;;;17.40;99.90;;;;;;4973798;28;20050;-80
2023/09/25 09:35:22;;;;;;;3.72;2.08;;;17.50;99.90;;;;;;4991007;28;20046;-80
2023/09/25 09:37:50;;;;;;;3.22;2.15;;;17.60;99.90;;;;;;4991324;28;20161;-79
2023/09/25 09:40:17;;;;;;;3.55;2.20;;;17.70;99.90;;;;;;4973531;28;20046;-80
2023/09/25 09:42:43;;;;;;;5.18;2.53;;;17.80;99.90;;;;;;4991096;28;20718;-80
2023/09/25 09:45:09;;;;;;;3.03;2.10;;;18.00;99.90;;;;;;4989724;28;20042;-80
2023/09/25 09:47:42;;;;;;;3.75;2.17;;;18.00;99.90;;;;;;4973342;28;20054;-81
2023/09/25 09:50:09;;;;;;;3.30;2.00;;;18.20;99.90;;;;;;4990760;28;20057;-80
2023/09/25 09:52:36;;;;;;;4.95;2.20;;;18.10;99.90;;;;;;4973218;28;20133;-81
2023/09/25 09:55:08;;;;;;;2.85;2.20;;;18.40;99.90;;;;;;4991449;28;20480;-80
2023/09/25 09:57:35;;;;;;;3.97;2.22;;;18.20;99.90;;;;;;4991753;28;20705;-80
2023/09/25 10:00:05;;;;;;;2.55;1.95;;;18.30;99.90;;;;;;4974244;28;20119;-80
2023/09/25 10:02:31;;;;;;;2.78;2.00;;;18.30;99.90;;;;;;4984573;28;20560;-80
2023/09/25 10:04:57;;;;;;;3.42;2.00;;;18.40;99.90;;;;;;4954876;28;20054;-80
2023/09/25 10:07:23;;;;;;;4.25;1.85;;;18.50;99.90;;;;;;4953873;28;20039;-81
2023/09/25 10:10:02;;;;;;;5.55;1.77;;;18.20;99.90;;;;;;4945711;28;20138;-79
2023/09/25 10:12:39;;;;;;;3.83;2.00;;;18.60;99.90;;;;;;4989576;28;20050;-81
2023/09/25 10:15:07;;;;;;;2.92;2.20;;;19.20;99.90;;;;;;4989283;28;20042;-80
2023/09/25 10:17:42;;;;;;;4.15;2.30;;;18.80;99.90;;;;;;4972564;28;20421;-80
2023/09/25 10:20:41;;;;;;;3.42;2.00;;;18.80;99.90;;;;;;4988819;28;20042;-82
2023/09/25 10:23:06;;;;;;;3.78;2.40;;;18.90;99.90;;;;;;4988206;28;20054;-81
2023/09/25 10:25:44;;;;;;;2.42;2.08;;;19.00;99.90;;;;;;4987616;28;20048;-79
2023/09/25 10:28:28;;;;;;;3.88;1.90;;;19.00;99.90;;;;;;4989418;28;20031;-80
2023/09/25 10:30:58;;;;;;;4.13;2.30;;;19.10;99.90;;;;;;4986448;28;20493;-79
2023/09/25 10:33:35;;;;;;;3.00;2.33;;;19.10;99.90;;;;;;4989000;28;20529;-79
2023/09/25 10:36:03;;;;;;;2.45;2.25;;;19.20;99.90;;;;;;4990086;28;20058;-80
2023/09/25 10:38:31;;;;;;;2.42;2.00;;;19.20;99.90;;;;;;4986127;28;20142;-80
2023/09/25 10:41:01;;;;;;;2.22;1.80;;;19.50;99.90;;;;;;4986135;28;20061;-81
2023/09/25 10:43:27;;;;;;;3.03;2.15;;;19.20;99.90;;;;;;4989187;28;20058;-81
2023/09/25 10:45:54;;;;;;;3.70;1.90;;;19.30;99.90;;;;;;4989591;28;20597;-81
2023/09/25 10:48:22;;;;;;;3.33;2.00;;;19.40;99.90;;;;;;4990194;28;20038;-81
2023/09/25 10:50:49;;;;;;;3.00;2.05;;;19.50;99.90;;;;;;4989983;28;20043;-81
2023/09/25 10:53:15;;;;;;;3.33;1.73;;;19.80;99.90;;;;;;4989703;28;20046;-82
2023/09/25 10:55:41;;;;;;;3.50;1.75;;;19.60;99.90;;;;;;4969253;28;20038;-81
2023/09/25 10:58:08;;;;;;;2.92;1.80;;;19.70;99.90;;;;;;4989176;28;20070;-82
2023/09/25 11:00:37;;;;;;;3.60;1.88;;;19.40;99.90;;;;;;4971766;28;20108;-83
2023/09/25 11:03:04;;;;;;;2.45;1.58;;;19.70;99.90;;;;;;4985775;28;20046;-81
2023/09/25 11:05:31;;;;;;;2.45;1.75;;;19.80;99.90;;;;;;4955845;28;20042;-82
2023/09/25 11:07:57;;;;;;;2.90;2.03;;;19.70;99.90;;;;;;4971673;28;20775;-82
2023/09/25 11:10:34;;;;;;;2.38;1.92;;;20.00;99.90;;;;;;4971195;28;20050;-83
2023/09/25 11:13:00;;;;;;;2.40;1.85;;;19.70;99.90;;;;;;4971537;28;20519;-83
2023/09/25 11:15:34;;;;;;;2.70;1.70;;;20.00;99.90;;;;;;4989310;28;20078;-82
2023/09/25 11:18:00;;;;;;;1.70;1.60;;;19.80;99.90;;;;;;4988354;28;20482;-84
2023/09/25 11:20:29;;;;;;;4.55;2.10;;;19.80;99.90;;;;;;4971495;28;20074;-81
2023/09/25 11:23:30;;;;;;;4.25;2.00;;;19.90;99.90;;;;;;4955297;28;20133;-81
2023/09/25 11:25:56;;;;;;;4.38;2.00;;;19.90;99.90;;;;;;4963020;28;20063;-82
2023/09/25 11:28:25;;;;;;;2.75;1.70;;;20.00;99.90;;;;;;4988817;28;20046;-81
2023/09/25 11:30:50;;;;;;;3.25;1.80;;;20.10;99.90;;;;;;4986922;28;20092;-82
2023/09/25 11:33:18;;;;;;;2.53;1.70;;;20.10;99.90;;;;;;4955311;28;20537;-81
2023/09/25 11:35:45;;;;;;;5.65;2.17;;;20.50;99.90;;;;;;4971372;28;20104;-83
2023/09/25 11:38:17;;;;;;;3.60;2.20;;;20.30;99.90;;;;;;4970975;28;20046;-80
2023/09/25 11:40:44;;;;;;;4.35;2.30;;;20.30;99.90;;;;;;4987127;28;20034;-81
2023/09/25 11:43:11;;;;;;;4.53;2.00;;;20.30;99.90;;;;;;4971208;28;20061;-80
2023/09/25 11:45:38;;;;;;;2.92;1.90;;;20.40;99.90;;;;;;4988815;28;20054;-81
2023/09/25 11:48:04;;;;;;;2.35;1.77;;;20.50;99.90;;;;;;4988546;28;20078;-80
2023/09/25 11:50:30;;;;;;;3.35;2.15;;;20.50;99.90;;;;;;4988352;28;20046;-79
2023/09/25 11:52:56;;;;;;;4.97;1.90;;;20.50;99.90;;;;;;4988834;28;20463;-81
2023/09/25 11:55:21;;;;;;;2.83;1.83;;;20.60;99.90;;;;;;4987543;28;20042;-82
2023/09/25 11:57:48;;;;;;;2.58;2.10;;;20.70;99.90;;;;;;4971350;28;20138;-82
2023/09/25 12:00:16;;;;;;;2.85;1.73;;;20.70;99.90;;;;;;4987674;28;20104;-82
2023/09/25 12:02:43;;;;;;;4.25;1.90;;;20.70;99.90;;;;;;4987277;28;20050;-82
2023/09/25 12:05:09;;;;;;;2.17;1.70;;;21.00;99.90;;;;;;4935783;28;20054;-82
2023/09/25 12:07:36;;;;;;;2.70;1.40;;;20.70;99.90;;;;;;4951249;28;20113;-83
2023/09/25 12:10:04;;;;;;;2.67;1.58;;;20.70;99.90;;;;;;4957399;28;20051;-82
2023/09/25 12:12:29;;;;;;;3.05;1.60;;;20.70;99.90;;;;;;4969829;28;20586;-81
2023/09/25 12:14:56;;;;;;;2.60;1.60;;;20.70;99.90;;;;;;4970081;28;20042;-80
2023/09/25 12:17:23;;;;;;;4.15;1.80;;;20.70;99.90;;;;;;4986694;28;20066;-79
2023/09/25 12:19:50;;;;;;;3.35;1.70;;;20.70;99.90;;;;;;4988681;28;20121;-81
2023/09/25 12:22:16;;;;;;;2.28;1.70;;;20.70;99.90;;;;;;4987070;28;20061;-80
2023/09/25 12:24:41;;;;;;;3.05;1.90;;;20.90;99.90;;;;;;4987494;28;20058;-80
2023/09/25 12:27:07;;;;;;;2.30;1.80;;;21.00;99.90;;;;;;4988248;28;20042;-80
2023/09/25 12:29:32;;;;;;;3.28;1.80;;;21.00;99.90;;;;;;4970221;28;20057;-80
2023/09/25 12:31:58;;;;;;;3.50;1.75;;;21.10;99.90;;;;;;4986076;28;20081;-80
2023/09/25 12:34:24;;;;;;;2.50;1.50;;;21.10;99.90;;;;;;4972132;28;20054;-80
2023/09/25 12:36:49;;;;;;;5.15;2.00;;;21.00;99.90;;;;;;4987325;28;20054;-80
2023/09/25 12:39:16;;;;;;;6.45;2.05;;;21.00;99.90;;;;;;4986679;28;20046;-81
2023/09/25 12:41:42;;;;;;;3.17;1.90;;;21.00;99.90;;;;;;4985876;28;20115;-80
2023/09/25 12:44:09;;;;;;;1.75;1.40;;;21.20;99.90;;;;;;4986680;28;20513;-80
2023/09/25 12:46:35;;;;;;;2.25;1.50;;;21.00;99.90;;;;;;4986511;28;20057;-81